Terminal Aerodrome Forecast
Issued by NWS Houston/Galveston, TX

Home | Current Version | Previous Version | Text Only | Print | Product List | Glossary On
Versions: 1 2 3 4 5 6 7 8 9 10 11 12 13 14 15 16 17 18 19 20 21 22
000
FTUS44 KHGX 270602 AAA
TAFGLS
TAF AMD
KGLS 270602Z 2706/2806 03012KT P6SM FEW025 BKN030 BKN040
     FM270800 06008KT P6SM VCSH SCT025 BKN250
      TEMPO 2710/2714 TSRA BKN025CB
     FM271400 03010KT P6SM -RA VCTS SCT030CB BKN120
      TEMPO 2714/2718 TSRA BKN030CB
     FM271800 03012KT P6SM -RA VCTS FEW020 SCT030CB BKN120
     FM280200 05010KT P6SM -RA VCTS FEW015 SCT030CB BKN120=

USA.gov is the U.S. government's official web portal to all federal, state and local government web resources and services.